createdAt,value
2022-12-09T00:01:32.086Z,17.27
2022-12-09T00:03:58.986Z,17.60
2022-12-09T00:06:28.106Z,17.40
2022-12-09T00:08:56.155Z,16.30
2022-12-09T00:11:23.749Z,16.27
2022-12-09T00:13:51.048Z,15.27
2022-12-09T00:16:18.140Z,14.70
2022-12-09T00:18:45.477Z,15.43
2022-12-09T00:21:12.136Z,14.73
2022-12-09T00:23:39.288Z,15.50
2022-12-09T00:26:06.094Z,15.00
2022-12-09T00:28:32.980Z,16.50
2022-12-09T00:31:00.883Z,16.70
2022-12-09T00:33:30.377Z,16.23
2022-12-09T00:36:06.770Z,15.67
2022-12-09T00:38:33.587Z,15.47
2022-12-09T00:41:00.295Z,15.40
2022-12-09T00:43:27.161Z,15.60
2022-12-09T00:45:54.099Z,15.23
2022-12-09T00:48:20.869Z,16.53
2022-12-09T00:50:47.441Z,16.10
2022-12-09T00:53:14.268Z,15.63
2022-12-09T00:55:41.084Z,15.57
2022-12-09T00:58:08.253Z,15.73
2022-12-09T01:00:34.977Z,15.03
2022-12-09T01:03:01.969Z,14.83
2022-12-09T01:05:28.600Z,14.90
2022-12-09T01:07:55.193Z,16.10
2022-12-09T01:10:21.821Z,14.70
2022-12-09T01:12:48.410Z,14.53
2022-12-09T01:15:14.938Z,14.83
2022-12-09T01:17:41.790Z,14.77
2022-12-09T01:20:09.875Z,15.23
2022-12-09T01:22:37.339Z,15.23
2022-12-09T01:25:04.709Z,14.27
2022-12-09T01:27:31.722Z,15.03
2022-12-09T01:29:58.313Z,14.73
2022-12-09T01:32:25.262Z,14.90
2022-12-09T01:34:52.427Z,15.73
2022-12-09T01:37:18.935Z,15.70
2022-12-09T01:39:45.991Z,15.80
2022-12-09T01:42:24.670Z,14.37
2022-12-09T01:45:36.721Z,14.77
2022-12-09T01:48:09.264Z,14.67
2022-12-09T01:50:37.236Z,15.70
2022-12-09T01:53:03.995Z,14.97
2022-12-09T01:55:30.868Z,14.67
2022-12-09T01:57:57.481Z,15.80
2022-12-09T02:00:24.228Z,15.30
2022-12-09T02:02:53.267Z,16.07
2022-12-09T02:05:21.275Z,14.70
2022-12-09T02:07:48.387Z,14.77
2022-12-09T02:10:16.809Z,15.33
2022-12-09T02:13:12.473Z,14.93
2022-12-09T02:15:49.088Z,15.43
2022-12-09T02:18:22.398Z,15.33
2022-12-09T02:21:02.623Z,15.20
2022-12-09T02:23:35.696Z,15.23
2022-12-09T02:26:25.977Z,14.60
2022-12-09T02:29:37.375Z,15.13
2022-12-09T02:32:58.560Z,14.57
2022-12-09T02:35:36.060Z,16.30
2022-12-09T02:38:22.097Z,15.30
2022-12-09T02:40:52.379Z,15.13
2022-12-09T02:43:22.903Z,15.57
2022-12-09T02:45:50.032Z,15.07
2022-12-09T02:48:19.160Z,15.93
2022-12-09T02:50:46.868Z,14.43
2022-12-09T02:53:14.167Z,15.00
2022-12-09T02:55:42.781Z,15.53
2022-12-09T02:58:09.938Z,16.17
2022-12-09T03:00:37.735Z,15.63
2022-12-09T03:03:09.585Z,15.40
2022-12-09T03:06:09.547Z,16.63
2022-12-09T03:09:00.393Z,16.83
2022-12-09T03:11:27.961Z,15.60
2022-12-09T03:14:08.761Z,15.63
2022-12-09T03:16:49.973Z,15.90
2022-12-09T03:19:29.144Z,15.70
2022-12-09T03:22:01.660Z,15.97
2022-12-09T03:24:50.373Z,16.27
2022-12-09T03:27:23.595Z,16.03
2022-12-09T03:29:51.133Z,17.77
2022-12-09T03:32:19.543Z,16.10
2022-12-09T03:34:48.772Z,16.73
2022-12-09T03:37:18.979Z,16.40
2022-12-09T03:39:47.173Z,16.63
2022-12-09T03:42:22.082Z,17.33
2022-12-09T03:44:52.536Z,17.93
2022-12-09T03:47:19.626Z,16.67
2022-12-09T03:49:46.547Z,17.90
2022-12-09T03:52:18.308Z,16.73
2022-12-09T03:54:47.209Z,16.63
2022-12-09T03:57:19.045Z,17.00
2022-12-09T03:59:58.160Z,18.00
2022-12-09T04:02:25.398Z,16.30
2022-12-09T04:04:52.449Z,16.27
2022-12-09T04:07:19.484Z,17.27
2022-12-09T04:09:46.295Z,16.70
2022-12-09T04:12:13.441Z,16.73
2022-12-09T04:14:40.263Z,18.00
2022-12-09T04:17:06.876Z,17.80
2022-12-09T04:19:34.033Z,17.97
2022-12-09T04:22:00.744Z,17.90
2022-12-09T04:24:27.438Z,16.97
2022-12-09T04:26:54.550Z,15.20
2022-12-09T04:29:21.217Z,16.63
2022-12-09T04:31:47.994Z,16.57
2022-12-09T04:34:14.895Z,15.97
2022-12-09T04:36:41.784Z,18.17
2022-12-09T04:39:08.853Z,17.77
2022-12-09T04:41:36.963Z,17.73
2022-12-09T04:44:04.280Z,17.07
2022-12-09T04:46:31.035Z,18.40
2022-12-09T04:48:58.269Z,18.73
2022-12-09T04:51:25.299Z,17.47
2022-12-09T04:53:51.991Z,17.17
2022-12-09T04:56:21.433Z,18.87
2022-12-09T04:58:49.227Z,18.50
2022-12-09T05:01:28.176Z,17.07
2022-12-09T05:03:57.787Z,15.93
2022-12-09T05:06:25.266Z,18.17
2022-12-09T05:08:52.058Z,17.10
2022-12-09T05:11:20.793Z,16.13
2022-12-09T05:13:47.966Z,16.13
2022-12-09T05:16:17.451Z,16.43
2022-12-09T05:18:45.546Z,16.50
2022-12-09T05:21:15.077Z,17.47
2022-12-09T05:23:42.557Z,18.23
2022-12-09T05:26:11.905Z,17.40
2022-12-09T05:28:38.966Z,17.23
2022-12-09T05:31:13.315Z,16.87
2022-12-09T05:33:41.291Z,17.43
2022-12-09T05:36:13.133Z,17.03
2022-12-09T05:38:41.043Z,16.93
2022-12-09T05:41:08.292Z,17.90
2022-12-09T05:43:36.872Z,17.67
2022-12-09T05:46:04.474Z,17.40
2022-12-09T05:48:32.001Z,17.97
2022-12-09T05:51:01.621Z,17.47
2022-12-09T05:53:29.171Z,17.60
2022-12-09T05:55:56.537Z,17.37
2022-12-09T05:58:23.601Z,16.87
2022-12-09T06:00:50.324Z,18.03
2022-12-09T06:03:17.299Z,17.27
2022-12-09T06:05:44.485Z,17.40
2022-12-09T06:08:12.059Z,17.70
2022-12-09T06:10:40.408Z,17.33
2022-12-09T06:13:07.988Z,17.50
2022-12-09T06:15:35.160Z,18.00
2022-12-09T06:18:02.383Z,18.37
2022-12-09T06:20:29.855Z,18.70
2022-12-09T06:22:57.121Z,17.97
2022-12-09T06:25:23.953Z,16.00
2022-12-09T06:27:52.589Z,18.63
2022-12-09T06:30:19.225Z,17.40
2022-12-09T06:32:46.774Z,18.10
2022-12-09T06:35:14.175Z,17.03
2022-12-09T06:37:41.664Z,17.97
2022-12-09T06:40:09.301Z,17.27
2022-12-09T06:42:36.319Z,17.83
2022-12-09T06:45:04.124Z,18.33
2022-12-09T06:47:33.692Z,17.30
2022-12-09T06:50:06.489Z,17.33
2022-12-09T06:52:34.308Z,17.70
2022-12-09T06:55:01.454Z,17.43
2022-12-09T06:57:28.182Z,18.77
2022-12-09T06:59:55.617Z,17.97
2022-12-09T07:02:22.826Z,18.57
2022-12-09T07:04:56.390Z,17.70
2022-12-09T07:07:23.338Z,19.43
2022-12-09T07:09:50.558Z,19.67
2022-12-09T07:12:18.375Z,18.77
2022-12-09T07:14:45.588Z,20.33
2022-12-09T07:17:17.623Z,18.67
2022-12-09T07:19:44.912Z,18.53
2022-12-09T07:22:12.084Z,19.23
2022-12-09T07:24:39.431Z,18.20
2022-12-09T07:27:10.790Z,19.37
2022-12-09T07:29:40.217Z,18.40
2022-12-09T07:32:09.988Z,20.27
2022-12-09T07:34:38.111Z,18.30
2022-12-09T07:37:05.194Z,17.27
2022-12-09T07:39:31.769Z,19.30
2022-12-09T07:41:58.593Z,20.10
2022-12-09T07:44:28.452Z,18.50
2022-12-09T07:46:55.987Z,18.90
2022-12-09T07:49:23.263Z,19.00
2022-12-09T07:51:50.800Z,19.40
2022-12-09T07:54:19.236Z,19.30
2022-12-09T07:56:46.252Z,18.20
2022-12-09T07:59:14.497Z,18.87
2022-12-09T08:01:41.652Z,17.83
2022-12-09T08:04:08.479Z,18.53
2022-12-09T08:06:36.054Z,18.63
2022-12-09T08:09:10.748Z,19.23
2022-12-09T08:11:38.543Z,17.70
2022-12-09T08:14:11.435Z,19.87
2022-12-09T08:16:40.431Z,19.93
2022-12-09T08:19:08.169Z,19.00
2022-12-09T08:21:35.136Z,19.57
2022-12-09T08:24:03.297Z,19.73
2022-12-09T08:26:31.503Z,19.13
2022-12-09T08:28:58.998Z,19.70
2022-12-09T08:31:27.465Z,23.30
2022-12-09T08:33:55.050Z,22.03
2022-12-09T08:36:24.962Z,22.67
2022-12-09T08:38:52.456Z,21.67
2022-12-09T08:41:35.924Z,24.07
2022-12-09T08:44:12.925Z,23.93
2022-12-09T08:46:41.860Z,22.87
2022-12-09T08:49:09.171Z,20.60
2022-12-09T08:51:36.061Z,20.20
2022-12-09T08:54:04.441Z,20.30
2022-12-09T08:56:32.021Z,19.37
2022-12-09T08:58:58.803Z,19.47
2022-12-09T09:01:32.286Z,19.53
2022-12-09T09:04:05.121Z,19.80
2022-12-09T09:06:32.404Z,20.07
2022-12-09T09:08:59.461Z,20.77
2022-12-09T09:11:27.794Z,18.83
2022-12-09T09:13:54.664Z,20.80
2022-12-09T09:16:23.803Z,21.03
2022-12-09T09:18:51.142Z,21.70
2022-12-09T09:21:21.274Z,19.60
2022-12-09T09:23:48.790Z,20.17
2022-12-09T09:26:18.709Z,20.33
2022-12-09T09:28:46.060Z,19.63
2022-12-09T09:31:15.932Z,19.80
2022-12-09T09:33:42.950Z,19.87
2022-12-09T09:36:15.634Z,21.47
2022-12-09T09:38:42.551Z,20.43
2022-12-09T09:41:34.168Z,18.97
2022-12-09T09:44:02.064Z,20.27
2022-12-09T09:46:50.091Z,20.23
2022-12-09T09:49:35.510Z,19.00
2022-12-09T09:52:12.686Z,20.17
2022-12-09T09:54:40.863Z,18.37
2022-12-09T09:57:14.128Z,17.10
2022-12-09T10:00:09.781Z,17.30
2022-12-09T10:02:52.628Z,17.77
2022-12-09T10:05:29.463Z,19.00
2022-12-09T10:08:12.974Z,17.30
2022-12-09T10:10:57.655Z,19.23
2022-12-09T10:13:44.171Z,17.57
2022-12-09T10:16:22.064Z,18.37
2022-12-09T10:19:12.031Z,22.57
2022-12-09T10:21:42.500Z,19.93
2022-12-09T10:24:19.103Z,19.17
2022-12-09T10:27:06.248Z,18.43
2022-12-09T10:29:56.050Z,17.27
2022-12-09T10:32:26.555Z,18.23
2022-12-09T10:34:55.120Z,19.20
2022-12-09T10:37:35.280Z,20.33
2022-12-09T10:40:28.373Z,19.77
2022-12-09T10:43:16.042Z,19.90
2022-12-09T10:48:47.452Z,19.73
2022-12-09T10:51:21.691Z,19.67
2022-12-09T10:53:52.422Z,19.53
2022-12-09T10:56:32.351Z,19.70
2022-12-09T10:59:08.064Z,20.80
2022-12-09T11:01:52.616Z,21.47
2022-12-09T11:04:26.468Z,20.13
2022-12-09T11:06:59.774Z,20.60
2022-12-09T11:09:30.987Z,20.13
2022-12-09T11:11:58.475Z,18.73
2022-12-09T11:14:48.570Z,18.93
2022-12-09T11:17:27.689Z,17.53
2022-12-09T11:20:08.884Z,17.20
2022-12-09T11:22:41.894Z,18.33
2022-12-09T11:25:15.935Z,18.37
2022-12-09T11:28:11.933Z,18.83
2022-12-09T11:30:57.595Z,19.47
2022-12-09T11:33:33.491Z,17.80
2022-12-09T11:36:00.745Z,15.10
2022-12-09T11:38:38.800Z,14.80
2022-12-09T11:41:11.290Z,15.87
2022-12-09T11:43:57.051Z,16.03
2022-12-09T11:46:29.800Z,16.03
2022-12-09T11:49:04.912Z,18.53
2022-12-09T11:51:37.684Z,15.83
2022-12-09T11:54:14.880Z,16.93
2022-12-09T11:56:41.780Z,16.57
2022-12-09T11:59:22.047Z,16.90
2022-12-09T12:02:06.631Z,15.60
2022-12-09T12:04:38.650Z,16.33
2022-12-09T12:07:09.956Z,15.50
2022-12-09T12:09:54.571Z,15.00
2022-12-09T12:12:30.641Z,14.77
2022-12-09T12:15:04.065Z,14.30
2022-12-09T12:17:37.635Z,12.03
2022-12-09T12:20:05.099Z,12.63
2022-12-09T12:22:43.783Z,12.77
2022-12-09T12:25:28.528Z,12.43
2022-12-09T12:28:30.976Z,12.27
2022-12-09T12:31:06.856Z,12.90
2022-12-09T12:34:23.453Z,11.90
2022-12-09T12:36:44.218Z,12.47
2022-12-09T12:39:26.127Z,12.67
2022-12-09T12:42:27.957Z,11.60
2022-12-09T12:45:32.691Z,13.37
2022-12-09T12:48:15.117Z,14.23
2022-12-09T12:51:03.548Z,15.40
2022-12-09T12:53:38.901Z,14.87
2022-12-09T12:56:29.419Z,15.60
2022-12-09T12:59:01.790Z,16.10
2022-12-09T13:01:31.459Z,15.73
2022-12-09T13:04:28.229Z,9.83
2022-12-09T13:07:12.840Z,12.37
2022-12-09T13:10:02.033Z,12.37
2022-12-09T13:12:52.366Z,12.80
2022-12-09T13:15:25.651Z,12.93
2022-12-09T13:17:52.397Z,14.43
2022-12-09T13:20:40.571Z,14.20
2022-12-09T13:23:13.178Z,14.73
2022-12-09T13:26:04.001Z,16.20
2022-12-09T13:28:48.985Z,17.73
2022-12-09T13:31:17.727Z,16.93
2022-12-09T13:33:44.450Z,21.47
2022-12-09T13:36:18.682Z,21.83
2022-12-09T13:38:45.300Z,22.67
2022-12-09T13:41:55.860Z,24.27
2022-12-09T13:44:24.729Z,23.97
2022-12-09T13:46:51.245Z,25.00
2022-12-09T13:49:26.388Z,25.40
2022-12-09T13:51:55.335Z,24.97
2022-12-09T13:54:28.969Z,23.33
2022-12-09T13:57:28.787Z,22.57
2022-12-09T13:59:59.535Z,23.50
2022-12-09T14:03:04.371Z,23.70
2022-12-09T14:05:31.658Z,24.50
2022-12-09T14:08:02.560Z,26.93
2022-12-09T14:10:46.440Z,26.80
2022-12-09T14:13:19.628Z,26.70
2022-12-09T14:15:47.998Z,28.33
2022-12-09T14:18:33.691Z,27.77
2022-12-09T14:21:18.575Z,26.83
2022-12-09T14:24:11.413Z,25.77
2022-12-09T14:26:45.839Z,28.60
2022-12-09T14:29:12.924Z,27.67
2022-12-09T14:31:56.852Z,26.27
2022-12-09T14:34:35.709Z,29.13
2022-12-09T14:37:11.001Z,33.27
2022-12-09T14:40:03.891Z,31.07
2022-12-09T14:42:37.419Z,30.90
2022-12-09T14:45:16.909Z,28.63
2022-12-09T14:47:48.020Z,30.50
2022-12-09T14:50:18.659Z,28.40
2022-12-09T14:52:54.455Z,26.53
2022-12-09T14:55:23.627Z,27.33
2022-12-09T14:57:51.013Z,27.10
2022-12-09T15:00:36.621Z,25.53
2022-12-09T15:06:01.844Z,24.33
2022-12-09T15:08:32.957Z,27.23
2022-12-09T15:11:00.952Z,25.83
2022-12-09T15:13:27.471Z,27.10
2022-12-09T15:15:54.784Z,25.10
2022-12-09T15:18:24.841Z,26.17
2022-12-09T15:20:57.108Z,26.40
2022-12-09T15:23:29.895Z,25.73
2022-12-09T15:25:58.911Z,26.87
2022-12-09T15:28:30.435Z,25.80
2022-12-09T15:30:58.336Z,27.00
2022-12-09T15:33:27.750Z,27.03
2022-12-09T15:35:57.438Z,26.17
2022-12-09T15:38:26.001Z,27.50
2022-12-09T15:41:12.508Z,28.23
2022-12-09T15:43:40.266Z,28.20
2022-12-09T15:46:06.950Z,28.20
2022-12-09T15:48:37.355Z,27.63
2022-12-09T15:51:16.393Z,29.13
2022-12-09T15:54:07.585Z,29.40
2022-12-09T15:56:37.312Z,28.27
2022-12-09T15:59:25.807Z,28.37
2022-12-09T16:01:54.091Z,28.20
2022-12-09T16:04:26.657Z,26.97
2022-12-09T16:06:57.141Z,28.03
2022-12-09T16:09:24.065Z,27.90
2022-12-09T16:11:54.641Z,26.87
2022-12-09T16:14:22.684Z,27.93
2022-12-09T16:16:57.500Z,28.00
2022-12-09T16:19:25.614Z,26.77
2022-12-09T16:21:58.206Z,26.03
2022-12-09T16:24:25.094Z,26.23
2022-12-09T16:26:54.727Z,27.93
2022-12-09T16:29:35.630Z,26.97
2022-12-09T16:32:22.514Z,26.23
2022-12-09T16:34:55.810Z,26.00
2022-12-09T16:37:43.556Z,27.57
2022-12-09T16:40:33.111Z,25.97
2022-12-09T16:43:17.994Z,26.53
2022-12-09T16:45:54.710Z,26.30
2022-12-09T16:48:23.192Z,27.70
2022-12-09T16:50:53.278Z,27.97
2022-12-09T16:53:23.747Z,27.33
2022-12-09T16:55:52.713Z,27.43
2022-12-09T16:58:19.537Z,28.33
2022-12-09T17:00:46.859Z,25.73
2022-12-09T17:03:40.514Z,26.47
2022-12-09T17:06:10.376Z,24.93
2022-12-09T17:08:38.021Z,23.47
2022-12-09T17:11:04.576Z,23.23
2022-12-09T17:13:31.301Z,23.30
2022-12-09T17:16:03.871Z,23.13
2022-12-09T17:18:30.524Z,23.47
2022-12-09T17:21:01.071Z,22.97
2022-12-09T17:23:27.697Z,21.73
2022-12-09T17:26:02.176Z,23.63
2022-12-09T17:28:31.034Z,24.63
2022-12-09T17:30:58.624Z,23.87
2022-12-09T17:33:29.597Z,22.37
2022-12-09T17:35:56.398Z,23.53
2022-12-09T17:38:23.187Z,24.03
2022-12-09T17:40:50.184Z,21.87
2022-12-09T17:43:16.781Z,22.17
2022-12-09T17:45:43.458Z,23.10
2022-12-09T17:48:10.484Z,23.17
2022-12-09T17:50:38.608Z,24.40
2022-12-09T17:53:05.439Z,21.80
2022-12-09T17:55:32.143Z,23.03
2022-12-09T17:57:59.170Z,24.10
2022-12-09T18:00:25.802Z,23.87
2022-12-09T18:02:52.346Z,22.93
2022-12-09T18:05:18.915Z,23.00
2022-12-09T18:07:45.537Z,23.60
2022-12-09T18:10:12.645Z,23.10
2022-12-09T18:12:39.312Z,23.57
2022-12-09T18:15:06.251Z,23.33
2022-12-09T18:17:34.190Z,22.00
2022-12-09T18:20:00.870Z,21.83
2022-12-09T18:22:27.573Z,20.90
2022-12-09T18:24:54.348Z,20.83
2022-12-09T18:27:21.037Z,19.70
2022-12-09T18:29:47.883Z,20.40
2022-12-09T18:32:14.493Z,20.73
2022-12-09T18:34:41.041Z,20.70
2022-12-09T18:37:07.810Z,20.57
2022-12-09T18:39:34.389Z,20.30
2022-12-09T18:42:01.400Z,20.10
2022-12-09T18:44:28.164Z,19.87
2022-12-09T18:46:54.852Z,20.20
2022-12-09T18:49:28.749Z,21.90
2022-12-09T18:51:56.034Z,19.63
2022-12-09T18:54:27.629Z,21.67
2022-12-09T18:56:56.004Z,21.37
2022-12-09T18:59:25.445Z,21.23
2022-12-09T19:01:52.303Z,21.17
2022-12-09T19:04:24.862Z,23.13
2022-12-09T19:06:55.513Z,23.93
2022-12-09T19:09:26.914Z,23.87
2022-12-09T19:11:53.549Z,23.93
2022-12-09T19:14:21.876Z,24.73
2022-12-09T19:16:48.993Z,24.97
2022-12-09T19:19:18.301Z,23.13
2022-12-09T19:21:45.497Z,24.83
2022-12-09T19:24:20.030Z,24.07
2022-12-09T19:26:46.578Z,23.20
2022-12-09T19:29:14.368Z,23.87
2022-12-09T19:31:43.536Z,24.10
2022-12-09T19:34:19.158Z,22.90
2022-12-09T19:36:47.761Z,23.67
2022-12-09T19:39:15.446Z,23.67
2022-12-09T19:41:43.213Z,21.50
2022-12-09T19:44:11.983Z,23.80
2022-12-09T19:46:38.719Z,22.53
2022-12-09T19:49:05.514Z,24.13
2022-12-09T19:51:32.349Z,26.10
2022-12-09T19:54:00.512Z,25.07
2022-12-09T19:56:27.557Z,25.60
2022-12-09T19:58:54.550Z,25.97
2022-12-09T20:01:23.838Z,24.93
2022-12-09T20:03:52.821Z,24.73
2022-12-09T20:06:21.420Z,24.23
2022-12-09T20:08:48.851Z,23.93
2022-12-09T20:11:18.768Z,24.63
2022-12-09T20:13:45.720Z,23.20
2022-12-09T20:16:15.187Z,24.23
2022-12-09T20:18:42.056Z,22.93
2022-12-09T20:21:10.687Z,25.47
2022-12-09T20:23:38.826Z,25.93
2022-12-09T20:26:16.222Z,26.40
2022-12-09T20:28:44.794Z,28.07
2022-12-09T20:31:14.661Z,24.00
2022-12-09T20:33:42.175Z,25.23
2022-12-09T20:36:17.616Z,23.40
2022-12-09T20:38:47.613Z,24.33
2022-12-09T20:41:14.742Z,25.13
2022-12-09T20:43:43.461Z,25.00
2022-12-09T20:46:18.511Z,26.00
2022-12-09T20:48:45.142Z,23.53
2022-12-09T20:51:24.180Z,24.63
2022-12-09T20:53:51.384Z,24.93
2022-12-09T20:56:19.174Z,26.00
2022-12-09T20:58:47.110Z,27.07
2022-12-09T21:01:27.565Z,29.47
2022-12-09T21:03:55.216Z,28.40
2022-12-09T21:06:24.574Z,26.40
2022-12-09T21:08:53.546Z,28.70
2022-12-09T21:11:22.454Z,26.23
2022-12-09T21:13:51.337Z,26.43
2022-12-09T21:16:25.407Z,27.43
2022-12-09T21:18:58.119Z,27.47
2022-12-09T21:21:26.335Z,27.30
2022-12-09T21:23:54.552Z,28.27
2022-12-09T21:26:23.699Z,25.67
2022-12-09T21:28:51.222Z,27.67
2022-12-09T21:31:23.132Z,27.40
2022-12-09T21:33:51.474Z,26.13
2022-12-09T21:36:29.223Z,27.27
2022-12-09T21:38:55.896Z,27.73
2022-12-09T21:41:28.765Z,28.53
2022-12-09T21:43:55.655Z,29.23
2022-12-09T21:46:27.221Z,28.10
2022-12-09T21:49:01.548Z,28.20
2022-12-09T21:51:30.422Z,29.27
2022-12-09T21:53:57.497Z,29.47
2022-12-09T21:56:26.238Z,30.37
2022-12-09T21:58:55.595Z,28.40
2022-12-09T22:01:27.670Z,30.07
2022-12-09T22:03:55.503Z,32.37
2022-12-09T22:06:22.468Z,28.23
2022-12-09T22:08:49.254Z,30.03
2022-12-09T22:11:28.186Z,31.03
2022-12-09T22:13:57.386Z,29.33
2022-12-09T22:16:26.808Z,27.00
2022-12-09T22:18:54.976Z,27.47
2022-12-09T22:21:25.676Z,28.67
2022-12-09T22:23:57.764Z,30.20
2022-12-09T22:26:25.141Z,30.10
2022-12-09T22:28:52.454Z,30.47
2022-12-09T22:31:21.388Z,28.20
2022-12-09T22:33:49.168Z,30.27
2022-12-09T22:36:15.937Z,29.83
2022-12-09T22:38:43.343Z,28.07
2022-12-09T22:41:16.043Z,30.00
2022-12-09T22:43:43.248Z,27.93
2022-12-09T22:46:12.269Z,29.77
2022-12-09T22:48:39.423Z,29.33
2022-12-09T22:51:11.863Z,26.60
2022-12-09T22:53:39.048Z,27.53
2022-12-09T22:56:06.165Z,27.80
2022-12-09T22:58:33.968Z,27.93
2022-12-09T23:01:00.552Z,28.43
2022-12-09T23:03:27.353Z,28.83
2022-12-09T23:05:54.220Z,27.53
2022-12-09T23:08:20.782Z,27.40
2022-12-09T23:10:47.354Z,26.33
2022-12-09T23:13:14.031Z,27.83
2022-12-09T23:15:40.563Z,27.30
2022-12-09T23:18:07.264Z,26.93
2022-12-09T23:20:34.018Z,27.03
2022-12-09T23:23:00.614Z,27.30
2022-12-09T23:25:27.205Z,27.33
2022-12-09T23:27:53.946Z,27.20
2022-12-09T23:30:20.550Z,26.60
2022-12-09T23:32:47.107Z,27.33
2022-12-09T23:35:13.620Z,27.20
2022-12-09T23:37:40.313Z,26.40
2022-12-09T23:40:07.965Z,26.47
2022-12-09T23:42:35.141Z,26.60
2022-12-09T23:45:01.830Z,26.93
2022-12-09T23:47:28.404Z,27.63
2022-12-09T23:49:55.050Z,26.60
2022-12-09T23:52:21.593Z,25.97
2022-12-09T23:54:48.143Z,27.10
2022-12-09T23:57:14.624Z,26.80
2022-12-09T23:59:41.166Z,25.50
